Time;durP1;ratioP1;P1;durP2;ratioP2;P2;SDS_P1;SDS_P2;PMS_P1;PMS_P2;Temp;Humidity;BMP_temperature;BMP_pressure;BME280_temperature;BME280_humidity;BME280_pressure;Samples;Min_cycle;Max_cycle;Signal;HPM_P1;HPM_P2
2022/03/21 00:00:59;;;;;;;23.45;16.02;;;6.90;99.90;;;;;;6268513;22;20015;-57
2022/03/21 00:03:28;;;;;;;26.80;16.20;;;6.90;99.90;;;;;;6268422;22;20019;-57
2022/03/21 00:05:55;;;;;;;24.63;14.65;;;6.90;99.90;;;;;;6241626;22;20031;-56
2022/03/21 00:08:22;;;;;;;25.40;15.45;;;6.90;99.90;;;;;;6268671;22;20015;-56
2022/03/21 00:10:49;;;;;;;24.48;15.25;;;6.90;99.90;;;;;;6241147;22;20465;-57
2022/03/21 00:13:15;;;;;;;23.50;14.98;;;7.20;99.90;;;;;;6241215;22;20850;-56
2022/03/21 00:15:46;;;;;;;25.52;15.27;;;6.80;99.90;;;;;;6268792;22;20097;-57
2022/03/21 00:18:13;;;;;;;22.05;14.32;;;6.90;99.90;;;;;;6268556;22;20019;-56
2022/03/21 00:20:43;;;;;;;22.55;13.20;;;6.90;99.90;;;;;;6265383;22;20050;-57
2022/03/21 00:23:09;;;;;;;21.75;13.43;;;6.90;99.90;;;;;;6267676;22;20016;-56
2022/03/21 00:25:35;;;;;;;26.17;15.18;;;6.80;99.90;;;;;;6267814;22;20085;-57
2022/03/21 00:28:02;;;;;;;19.35;12.00;;;6.90;99.90;;;;;;6267796;22;20022;-58
2022/03/21 00:30:29;;;;;;;27.00;14.95;;;6.80;99.90;;;;;;6267637;22;20422;-57
2022/03/21 00:32:55;;;;;;;26.30;14.20;;;6.80;99.90;;;;;;6267906;22;20016;-56
2022/03/21 00:35:22;;;;;;;27.75;15.48;;;6.80;99.90;;;;;;6268216;22;20401;-57
2022/03/21 00:37:48;;;;;;;25.38;14.73;;;6.80;99.90;;;;;;6239563;22;20078;-57
2022/03/21 00:40:15;;;;;;;22.90;13.98;;;6.80;99.90;;;;;;6268564;22;20015;-57
2022/03/21 00:42:43;;;;;;;25.38;17.05;;;6.80;99.90;;;;;;6268157;22;20020;-57
2022/03/21 00:45:15;;;;;;;25.70;14.00;;;6.80;99.90;;;;;;6267880;22;20346;-57
2022/03/21 00:47:41;;;;;;;22.02;14.02;;;6.80;99.90;;;;;;6268874;22;20020;-57
2022/03/21 00:50:09;;;;;;;20.58;13.57;;;6.80;99.90;;;;;;6267181;22;20023;-57
2022/03/21 00:52:49;;;;;;;22.65;14.93;;;6.80;99.90;;;;;;6268609;22;20012;-57
2022/03/21 00:55:17;;;;;;;25.25;14.68;;;6.80;99.90;;;;;;6268151;22;20616;-56
2022/03/21 00:57:44;;;;;;;24.00;13.82;;;6.80;99.90;;;;;;6268427;22;20099;-56
2022/03/21 01:00:13;;;;;;;20.75;12.88;;;6.80;99.90;;;;;;6240682;22;20024;-57
2022/03/21 01:02:39;;;;;;;21.17;13.82;;;6.80;99.90;;;;;;6267884;22;20130;-56
2022/03/21 01:05:07;;;;;;;24.70;13.10;;;6.70;99.90;;;;;;6214246;22;20406;-57
2022/03/21 01:07:33;;;;;;;23.58;13.85;;;6.80;99.90;;;;;;6268162;22;20020;-57
2022/03/21 01:10:00;;;;;;;19.50;12.63;;;6.80;99.90;;;;;;6267882;22;20074;-57
2022/03/21 01:12:27;;;;;;;23.38;14.43;;;6.70;99.90;;;;;;6267676;22;20012;-57
2022/03/21 01:14:53;;;;;;;29.10;14.02;;;6.70;99.90;;;;;;6268272;22;20070;-56
2022/03/21 01:17:19;;;;;;;20.60;12.15;;;6.70;99.90;;;;;;6242014;22;20038;-57
2022/03/21 01:19:44;;;;;;;27.05;14.43;;;6.70;99.90;;;;;;6269836;22;20087;-57
2022/03/21 01:22:10;;;;;;;30.65;13.43;;;6.70;99.90;;;;;;6270107;22;20043;-57
2022/03/21 01:24:37;;;;;;;21.17;13.80;;;6.70;99.90;;;;;;6241624;22;20031;-59
2022/03/21 01:27:04;;;;;;;19.33;12.85;;;6.70;99.90;;;;;;6270171;22;20024;-71
2022/03/21 01:29:30;;;;;;;26.85;13.98;;;6.70;99.90;;;;;;6269549;22;20364;-60
2022/03/21 01:31:56;;;;;;;22.95;14.45;;;7.50;99.90;;;;;;6270023;22;20453;-59
2022/03/21 01:34:21;;;;;;;21.85;13.48;;;6.90;99.90;;;;;;6270067;22;20027;-57
2022/03/21 01:36:47;;;;;;;23.50;14.60;;;6.60;99.90;;;;;;6269152;22;20020;-57
2022/03/21 01:39:13;;;;;;;20.05;13.10;;;6.60;99.90;;;;;;6242724;22;20343;-59
2022/03/21 01:41:39;;;;;;;21.30;13.60;;;6.70;99.90;;;;;;6270001;22;20016;-57
2022/03/21 01:44:07;;;;;;;25.25;14.05;;;6.70;99.90;;;;;;6269554;22;20024;-57
2022/03/21 01:46:34;;;;;;;23.13;14.50;;;7.00;99.90;;;;;;6269804;22;20019;-56
2022/03/21 01:49:02;;;;;;;22.38;14.30;;;6.70;99.90;;;;;;6269488;22;20085;-56
2022/03/21 01:51:28;;;;;;;21.88;13.70;;;6.60;99.90;;;;;;6269739;22;20012;-57
2022/03/21 01:56:41;;;;;;;22.58;14.20;;;6.60;99.90;;;;;;6269194;22;20097;-57
2022/03/21 01:59:08;;;;;;;25.67;13.82;;;6.60;99.90;;;;;;6269345;22;20023;-61
2022/03/21 02:01:34;;;;;;;23.90;13.93;;;6.60;99.90;;;;;;6269604;22;20012;-56
2022/03/21 02:04:00;;;;;;;28.80;16.35;;;6.60;99.90;;;;;;6241850;22;20024;-57
2022/03/21 02:06:28;;;;;;;22.52;14.55;;;6.60;99.90;;;;;;6269655;22;20046;-57
2022/03/21 02:09:02;;;;;;;29.30;16.40;;;6.60;99.90;;;;;;6242196;22;20031;-57
2022/03/21 02:11:29;;;;;;;26.83;16.98;;;6.80;99.90;;;;;;6269682;22;20024;-62
2022/03/21 02:13:57;;;;;;;25.58;15.75;;;6.60;99.90;;;;;;6269671;22;20019;-62
2022/03/21 02:16:25;;;;;;;25.55;15.73;;;6.50;99.90;;;;;;6268927;22;20020;-61
2022/03/21 02:18:51;;;;;;;27.30;16.95;;;6.50;99.90;;;;;;6269448;22;20101;-61
2022/03/21 02:21:27;;;;;;;25.25;15.63;;;6.50;99.90;;;;;;6269144;22;20473;-64
2022/03/21 02:23:59;;;;;;;24.80;16.52;;;6.50;99.90;;;;;;6269228;22;20241;-64
2022/03/21 02:26:26;;;;;;;31.85;17.90;;;6.50;99.90;;;;;;6265436;22;20095;-58
2022/03/21 02:28:53;;;;;;;29.83;17.60;;;6.50;99.90;;;;;;6268362;22;20426;-57
2022/03/21 02:31:20;;;;;;;29.00;17.65;;;6.50;99.90;;;;;;6268726;22;20132;-57
2022/03/21 02:33:46;;;;;;;30.60;18.55;;;6.40;99.90;;;;;;6269405;22;20070;-57
2022/03/21 02:36:15;;;;;;;27.98;17.63;;;6.40;99.90;;;;;;6241504;22;20102;-57
2022/03/21 02:38:42;;;;;;;30.13;18.35;;;6.40;99.90;;;;;;6268839;22;20030;-56
2022/03/21 02:41:08;;;;;;;34.33;21.60;;;6.30;99.90;;;;;;6269356;22;20026;-57
2022/03/21 02:43:58;;;;;;;29.45;18.90;;;6.30;99.90;;;;;;6268555;22;20016;-57
2022/03/21 02:46:25;;;;;;;26.50;17.48;;;6.30;99.90;;;;;;6269041;22;20031;-57
2022/03/21 02:48:53;;;;;;;31.92;18.88;;;6.20;99.90;;;;;;6268792;22;20026;-57
2022/03/21 02:51:20;;;;;;;27.90;17.23;;;6.10;99.90;;;;;;6268884;22;20055;-57
2022/03/21 02:53:49;;;;;;;32.55;19.25;;;6.00;99.90;;;;;;6268642;22;20042;-56
2022/03/21 02:56:15;;;;;;;27.25;18.67;;;6.00;99.90;;;;;;6269284;22;20104;-57
2022/03/21 02:58:40;;;;;;;28.65;18.77;;;5.90;99.90;;;;;;6269012;22;20027;-57
2022/03/21 03:01:11;;;;;;;34.40;18.85;;;5.80;99.90;;;;;;6268963;22;20299;-57
2022/03/21 03:03:36;;;;;;;32.38;18.77;;;5.80;99.90;;;;;;6268597;22;20026;-57
2022/03/21 03:06:03;;;;;;;26.08;17.50;;;5.70;99.90;;;;;;6241950;22;20027;-57
2022/03/21 03:08:29;;;;;;;32.92;19.98;;;5.60;99.90;;;;;;6268809;22;20065;-57
2022/03/21 03:10:55;;;;;;;29.90;16.83;;;5.50;99.90;;;;;;6268034;22;20469;-56
2022/03/21 03:13:21;;;;;;;30.50;18.17;;;5.40;99.90;;;;;;6269157;22;20024;-57
2022/03/21 03:15:47;;;;;;;30.50;18.38;;;5.30;99.90;;;;;;6268438;22;20028;-57
2022/03/21 03:18:13;;;;;;;28.02;17.98;;;5.20;99.90;;;;;;6268951;22;20334;-57
2022/03/21 03:20:52;;;;;;;27.70;17.85;;;5.20;99.90;;;;;;6268602;22;20027;-57
2022/03/21 03:23:19;;;;;;;27.73;17.00;;;5.10;99.90;;;;;;6268107;22;20027;-57
2022/03/21 03:25:46;;;;;;;27.60;16.52;;;5.00;99.90;;;;;;6240810;22;20027;-57
2022/03/21 03:28:13;;;;;;;30.58;18.33;;;4.90;99.90;;;;;;6268893;22;20019;-57
2022/03/21 03:30:40;;;;;;;25.92;16.60;;;4.80;99.90;;;;;;6240686;22;20028;-56
2022/03/21 03:33:06;;;;;;;23.08;15.80;;;4.80;99.90;;;;;;6240904;22;20064;-57
2022/03/21 03:35:32;;;;;;;27.95;15.98;;;4.70;99.90;;;;;;6268335;22;20026;-57
2022/03/21 03:37:57;;;;;;;27.85;15.25;;;4.70;99.90;;;;;;6268328;22;20024;-57
2022/03/21 03:40:23;;;;;;;26.20;15.85;;;4.60;99.90;;;;;;6268191;22;20031;-68
2022/03/21 03:42:49;;;;;;;25.65;15.15;;;4.50;99.90;;;;;;6241650;22;20454;-60
2022/03/21 03:45:14;;;;;;;26.30;14.85;;;4.50;99.90;;;;;;6267996;22;20427;-67
2022/03/21 03:47:41;;;;;;;22.85;14.48;;;4.40;99.90;;;;;;6241560;22;20051;-69
2022/03/21 03:50:08;;;;;;;23.92;13.57;;;4.40;99.90;;;;;;6268218;22;20054;-73
2022/03/21 03:52:33;;;;;;;22.15;13.93;;;4.30;99.90;;;;;;6241170;22;20069;-57
2022/03/21 03:54:59;;;;;;;23.33;13.70;;;4.20;99.90;;;;;;6267554;22;20024;-67
2022/03/21 03:57:25;;;;;;;30.77;14.93;;;4.30;99.90;;;;;;6268400;22;20355;-57
2022/03/21 03:59:51;;;;;;;25.58;14.98;;;4.30;99.90;;;;;;6268799;22;20031;-60
2022/03/21 04:02:17;;;;;;;26.45;12.95;;;4.10;99.90;;;;;;6268679;22;20023;-58
2022/03/21 04:04:43;;;;;;;23.90;14.07;;;4.00;99.90;;;;;;6268481;22;20462;-56
2022/03/21 04:07:09;;;;;;;20.00;12.50;;;4.00;99.90;;;;;;6267849;22;20418;-57
2022/03/21 04:09:34;;;;;;;24.27;13.88;;;4.00;99.90;;;;;;6268471;22;20104;-57
2022/03/21 04:12:02;;;;;;;23.50;13.40;;;3.90;99.90;;;;;;6267664;22;20024;-57
2022/03/21 04:14:28;;;;;;;23.92;13.80;;;3.90;99.90;;;;;;6268368;22;20020;-56
2022/03/21 04:16:54;;;;;;;21.95;12.73;;;3.80;99.90;;;;;;6267503;22;20099;-56
2022/03/21 04:19:20;;;;;;;22.45;12.80;;;3.80;99.90;;;;;;6267621;22;20019;-57
2022/03/21 04:21:45;;;;;;;19.48;12.32;;;3.70;99.90;;;;;;6267837;22;20011;-57
2022/03/21 04:24:11;;;;;;;20.83;12.52;;;3.70;99.90;;;;;;6267410;22;20019;-56
2022/03/21 04:26:37;;;;;;;26.35;13.32;;;3.60;99.90;;;;;;6267527;22;20464;-56
2022/03/21 04:29:04;;;;;;;22.08;13.70;;;3.70;99.90;;;;;;6268577;22;20027;-56
2022/03/21 04:31:33;;;;;;;22.63;12.80;;;3.50;99.90;;;;;;6268786;22;20099;-56
2022/03/21 04:33:59;;;;;;;18.58;12.02;;;3.50;99.90;;;;;;6240793;22;20473;-56
2022/03/21 04:36:25;;;;;;;21.00;12.38;;;3.40;99.90;;;;;;6268336;22;20023;-60
2022/03/21 04:38:50;;;;;;;24.77;13.43;;;3.40;99.90;;;;;;6268080;22;20379;-57
2022/03/21 04:41:17;;;;;;;21.75;12.77;;;3.40;99.90;;;;;;6268495;22;20019;-57
2022/03/21 04:43:42;;;;;;;23.88;13.23;;;3.30;99.90;;;;;;6268595;22;20334;-57
2022/03/21 04:46:09;;;;;;;20.30;12.80;;;3.30;99.90;;;;;;6268378;22;20462;-61
2022/03/21 04:48:34;;;;;;;22.02;13.38;;;3.20;99.90;;;;;;6268838;22;20032;-60
2022/03/21 04:51:00;;;;;;;18.52;12.43;;;3.20;99.90;;;;;;6270761;22;20039;-62
2022/03/21 04:53:26;;;;;;;27.30;12.20;;;3.20;99.90;;;;;;6270441;22;20102;-57
2022/03/21 04:55:52;;;;;;;22.35;14.38;;;3.20;99.90;;;;;;6270318;22;20051;-66
2022/03/21 04:58:17;;;;;;;22.27;12.68;;;3.20;99.90;;;;;;6270822;22;20102;-62
2022/03/21 05:00:46;;;;;;;22.50;13.73;;;3.10;99.90;;;;;;6270078;22;20020;-65
2022/03/21 05:03:12;;;;;;;21.92;13.10;;;3.10;99.90;;;;;;6270875;22;20026;-68
2022/03/21 05:05:38;;;;;;;23.83;13.32;;;3.10;99.90;;;;;;6270335;22;20023;-57
2022/03/21 05:08:05;;;;;;;23.15;13.35;;;3.00;99.90;;;;;;6270408;22;20026;-68
2022/03/21 05:10:31;;;;;;;22.35;12.65;;;3.00;99.90;;;;;;6269899;22;20019;-57
2022/03/21 05:12:58;;;;;;;20.13;11.05;;;2.90;99.90;;;;;;6270041;22;20027;-57
2022/03/21 05:15:27;;;;;;;22.13;12.85;;;2.90;99.90;;;;;;6270042;22;20467;-56
2022/03/21 05:17:52;;;;;;;21.48;12.27;;;2.90;99.90;;;;;;6270254;22;20031;-56
2022/03/21 05:20:19;;;;;;;25.13;13.98;;;2.80;99.90;;;;;;6270186;22;20452;-57
2022/03/21 05:31:07;;;;;;;19.83;12.02;;;2.60;99.90;;;;;;6269502;22;20030;-58
2022/03/21 05:36:19;;;;;;;20.90;11.63;;;2.60;99.90;;;;;;6269887;22;20030;-57
2022/03/21 05:38:45;;;;;;;23.70;12.02;;;2.50;99.90;;;;;;6269988;22;20022;-57
2022/03/21 05:41:11;;;;;;;21.00;11.93;;;2.50;99.90;;;;;;6268627;22;20030;-60
2022/03/21 05:43:37;;;;;;;19.85;11.95;;;2.50;99.90;;;;;;6269971;22;20091;-60
2022/03/21 05:46:03;;;;;;;21.90;11.95;;;2.50;99.90;;;;;;6270089;22;20019;-60
2022/03/21 05:51:15;;;;;;;31.45;14.50;;;2.40;99.90;;;;;;6270039;22;20023;-57
2022/03/21 05:53:42;;;;;;;20.83;12.15;;;2.40;99.90;;;;;;6270210;22;20026;-56
2022/03/21 05:56:08;;;;;;;22.27;12.27;;;2.40;99.90;;;;;;6269582;22;20083;-56
2022/03/21 05:58:34;;;;;;;17.45;11.48;;;3.00;99.90;;;;;;6270089;22;20016;-57
2022/03/21 06:01:00;;;;;;;20.05;11.68;;;2.40;99.90;;;;;;6269737;22;20091;-57
2022/03/21 06:03:26;;;;;;;18.85;11.52;;;2.50;99.90;;;;;;6269365;22;20051;-56
2022/03/21 06:05:53;;;;;;;15.48;9.50;;;2.50;99.90;;;;;;6269506;22;20038;-56
2022/03/21 06:08:20;;;;;;;14.93;9.82;;;2.50;99.90;;;;;;6269945;22;20016;-57
2022/03/21 06:10:46;;;;;;;18.05;9.85;;;2.50;99.90;;;;;;6269541;22;20023;-57
2022/03/21 06:13:12;;;;;;;15.90;9.38;;;2.50;99.90;;;;;;6269554;22;20016;-56
2022/03/21 06:15:39;;;;;;;20.58;12.15;;;2.60;99.90;;;;;;6269258;22;20015;-56
2022/03/21 06:18:12;;;;;;;17.83;10.48;;;2.60;99.90;;;;;;6269735;22;20022;-56
2022/03/21 06:20:39;;;;;;;18.08;10.82;;;2.70;99.90;;;;;;6242108;22;20524;-56
2022/03/21 06:23:06;;;;;;;16.38;10.40;;;2.70;99.90;;;;;;6269640;22;20058;-56
2022/03/21 06:25:32;;;;;;;17.83;11.00;;;2.80;99.90;;;;;;6269029;22;20038;-56
2022/03/21 06:27:58;;;;;;;18.33;11.65;;;2.90;99.90;;;;;;6269492;22;20065;-56
2022/03/21 06:30:24;;;;;;;18.95;11.18;;;3.00;99.90;;;;;;6269229;22;20047;-56
2022/03/21 06:32:50;;;;;;;22.13;12.85;;;3.00;99.90;;;;;;6269695;22;20034;-57
2022/03/21 06:35:16;;;;;;;21.30;12.23;;;3.10;99.90;;;;;;6269321;22;20012;-57
2022/03/21 06:37:42;;;;;;;18.90;12.32;;;3.20;99.90;;;;;;6266170;22;20030;-57
2022/03/21 06:40:09;;;;;;;21.63;11.90;;;3.30;99.90;;;;;;6269124;22;20015;-57
2022/03/21 06:42:35;;;;;;;19.25;12.05;;;3.50;99.90;;;;;;6269472;22;20019;-56
2022/03/21 06:45:01;;;;;;;20.65;13.13;;;3.60;99.90;;;;;;6240888;22;20556;-57
2022/03/21 06:47:27;;;;;;;22.40;12.32;;;3.80;99.90;;;;;;6269308;22;20037;-57
2022/03/21 06:49:52;;;;;;;17.05;11.35;;;3.90;99.90;;;;;;6269418;22;20499;-57
2022/03/21 06:52:18;;;;;;;20.02;11.88;;;4.10;99.90;;;;;;6268434;22;20020;-57
2022/03/21 06:54:48;;;;;;;18.70;11.57;;;4.20;99.90;;;;;;6269571;22;20436;-57
2022/03/21 06:57:16;;;;;;;19.23;11.48;;;4.30;99.90;;;;;;6241588;22;20054;-57
2022/03/21 06:59:42;;;;;;;16.45;11.20;;;4.50;99.90;;;;;;6269247;22;20027;-57
2022/03/21 07:02:08;;;;;;;25.80;13.90;;;4.70;99.90;;;;;;6269088;22;20050;-57
2022/03/21 07:04:33;;;;;;;15.85;11.10;;;4.90;99.90;;;;;;6268754;22;20055;-56
2022/03/21 07:06:59;;;;;;;19.95;13.45;;;5.10;99.90;;;;;;6267618;22;20351;-57
2022/03/21 07:09:25;;;;;;;23.38;13.73;;;5.30;99.90;;;;;;6268494;22;20459;-58
2022/03/21 07:11:52;;;;;;;24.80;13.18;;;5.60;99.90;;;;;;6268868;22;20027;-56
2022/03/21 07:14:19;;;;;;;19.63;12.00;;;5.90;99.90;;;;;;6268042;22;20089;-56
2022/03/21 07:16:45;;;;;;;24.70;13.93;;;6.20;99.90;;;;;;6268573;22;20426;-56
2022/03/21 07:19:10;;;;;;;21.33;14.05;;;6.50;99.90;;;;;;6258387;22;20505;-58
2022/03/21 07:21:36;;;;;;;22.08;13.05;;;7.20;99.90;;;;;;6266049;22;20019;-58
2022/03/21 07:24:02;;;;;;;19.50;13.35;;;7.10;99.90;;;;;;6238220;22;20016;-58
2022/03/21 07:26:28;;;;;;;19.48;12.65;;;7.40;99.90;;;;;;6238555;22;20019;-59
2022/03/21 07:28:54;;;;;;;21.80;14.13;;;7.70;99.90;;;;;;6267115;22;20093;-58
2022/03/21 07:31:20;;;;;;;21.15;12.73;;;8.00;99.90;;;;;;6240671;22;20051;-58
2022/03/21 07:33:45;;;;;;;21.27;13.30;;;8.50;99.90;;;;;;6267493;22;20088;-59
2022/03/21 07:36:11;;;;;;;22.55;14.02;;;8.60;99.90;;;;;;6267689;22;20450;-59
2022/03/21 07:38:37;;;;;;;22.55;13.77;;;8.90;99.90;;;;;;6268650;22;20476;-59
2022/03/21 07:41:07;;;;;;;18.75;12.52;;;9.20;99.90;;;;;;6266973;22;20077;-59
2022/03/21 07:43:33;;;;;;;21.55;13.73;;;9.40;99.90;;;;;;6268758;22;20035;-59
2022/03/21 07:48:44;;;;;;;20.65;13.02;;;9.90;99.90;;;;;;6240681;22;20025;-59
2022/03/21 07:51:10;;;;;;;20.42;12.95;;;10.10;99.90;;;;;;6267892;22;20023;-58
2022/03/21 07:53:36;;;;;;;21.83;13.05;;;10.30;99.90;;;;;;6267949;22;20081;-58
2022/03/21 07:56:01;;;;;;;24.98;14.32;;;10.40;99.90;;;;;;6265227;22;20292;-62
2022/03/21 07:58:28;;;;;;;18.75;12.27;;;10.80;99.90;;;;;;6235290;22;20020;-68
2022/03/21 08:00:56;;;;;;;18.67;12.05;;;10.90;99.90;;;;;;6265604;22;20026;-67
2022/03/21 08:03:22;;;;;;;19.73;12.38;;;11.20;99.90;;;;;;6238776;22;20031;-66
2022/03/21 08:05:48;;;;;;;18.85;11.85;;;11.40;99.90;;;;;;6266821;22;20502;-67
2022/03/21 08:08:15;;;;;;;15.32;10.10;;;11.50;99.90;;;;;;6268190;22;20016;-65
2022/03/21 08:10:42;;;;;;;20.70;12.43;;;11.60;99.90;;;;;;6267389;22;20027;-71
2022/03/21 08:13:08;;;;;;;20.42;12.85;;;11.70;99.90;;;;;;6265392;22;20078;-71
2022/03/21 08:15:38;;;;;;;16.45;11.57;;;12.00;99.90;;;;;;6238908;22;20023;-60
2022/03/21 08:18:04;;;;;;;19.65;12.70;;;12.20;99.90;;;;;;6266372;22;20016;-58
2022/03/21 08:20:35;;;;;;;18.38;11.90;;;12.30;99.90;;;;;;6265096;22;20118;-58
2022/03/21 08:23:06;;;;;;;18.10;11.68;;;12.30;99.90;;;;;;6267341;22;20023;-60
2022/03/21 08:25:33;;;;;;;20.98;12.68;;;12.60;99.90;;;;;;6266321;22;20023;-58
2022/03/21 08:27:59;;;;;;;20.17;11.60;;;12.80;99.90;;;;;;6264887;22;20457;-59
2022/03/21 08:30:27;;;;;;;19.77;13.32;;;12.90;99.90;;;;;;6264021;22;20066;-56
2022/03/21 08:32:53;;;;;;;20.40;13.35;;;13.20;99.90;;;;;;6266023;22;20907;-56
2022/03/21 08:35:20;;;;;;;16.33;10.77;;;13.10;99.90;;;;;;6265562;22;20019;-60
2022/03/21 08:37:48;;;;;;;18.45;12.20;;;13.50;99.90;;;;;;6265651;22;20126;-61
2022/03/21 08:40:15;;;;;;;21.40;11.95;;;13.40;99.90;;;;;;6266220;22;20074;-67
2022/03/21 08:42:40;;;;;;;17.65;11.70;;;13.80;99.90;;;;;;6238593;22;20164;-56
2022/03/21 08:45:07;;;;;;;19.70;12.18;;;14.10;99.90;;;;;;6263269;22;20020;-56
2022/03/21 08:47:34;;;;;;;17.42;11.30;;;14.30;99.90;;;;;;6264473;22;20027;-56
2022/03/21 08:50:00;;;;;;;21.23;12.52;;;14.80;99.90;;;;;;6264986;22;20489;-58
2022/03/21 08:52:26;;;;;;;17.50;11.05;;;14.90;99.90;;;;;;6264401;22;20025;-57
2022/03/21 08:54:52;;;;;;;19.45;12.35;;;15.30;99.90;;;;;;6265163;22;20024;-57
2022/03/21 08:57:17;;;;;;;18.25;12.43;;;15.80;99.90;;;;;;6264868;22;20007;-57
2022/03/21 08:59:45;;;;;;;17.10;11.93;;;16.00;99.90;;;;;;6266420;22;20027;-58
2022/03/21 09:02:13;;;;;;;18.40;11.98;;;16.30;99.90;;;;;;6266483;22;20032;-57
2022/03/21 09:04:39;;;;;;;17.70;11.45;;;16.40;99.90;;;;;;6265201;22;20517;-61
2022/03/21 09:07:08;;;;;;;17.73;11.93;;;16.90;99.90;;;;;;6236885;22;20122;-59
2022/03/21 09:09:34;;;;;;;18.95;12.77;;;16.90;99.90;;;;;;6266101;22;20020;-60
2022/03/21 09:12:00;;;;;;;18.33;12.35;;;17.10;99.90;;;;;;6265641;22;20047;-57
2022/03/21 09:14:26;;;;;;;18.10;11.68;;;17.50;99.90;;;;;;6266261;22;20073;-57
2022/03/21 09:16:52;;;;;;;17.73;11.18;;;18.20;99.90;;;;;;6265998;22;20334;-57
2022/03/21 09:19:19;;;;;;;20.38;12.63;;;18.50;99.90;;;;;;6265915;22;20016;-60
2022/03/21 09:21:46;;;;;;;17.58;12.48;;;18.80;99.90;;;;;;6265264;22;20020;-58
2022/03/21 09:24:12;;;;;;;16.33;12.13;;;18.80;99.90;;;;;;6265886;22;20023;-57
2022/03/21 09:26:38;;;;;;;16.95;11.70;;;18.50;99.90;;;;;;6263195;22;20481;-56
2022/03/21 09:29:04;;;;;;;17.33;11.45;;;19.00;99.90;;;;;;6265391;22;20023;-57
2022/03/21 09:31:31;;;;;;;19.75;12.40;;;19.50;99.90;;;;;;6265559;22;20043;-56
2022/03/21 09:33:57;;;;;;;18.95;11.88;;;19.80;99.90;;;;;;6237592;22;20020;-56
2022/03/21 09:36:23;;;;;;;17.75;11.40;;;19.90;99.90;;;;;;6264522;22;20020;-56
2022/03/21 09:38:49;;;;;;;18.27;11.80;;;19.70;98.90;;;;;;6266059;22;20027;-57
2022/03/21 09:41:22;;;;;;;17.13;11.73;;;19.50;99.90;;;;;;6267570;22;20023;-56
2022/03/21 09:43:52;;;;;;;19.33;11.85;;;19.70;99.90;;;;;;6266623;22;20030;-59
2022/03/21 09:46:18;;;;;;;17.88;11.88;;;20.00;98.60;;;;;;6266743;22;20145;-59
2022/03/21 09:48:48;;;;;;;15.75;12.27;;;20.80;98.70;;;;;;6267381;22;20519;-57
2022/03/21 09:51:19;;;;;;;16.48;12.05;;;20.70;97.90;;;;;;6267528;22;20090;-56
2022/03/21 09:53:45;;;;;;;17.77;12.43;;;20.90;98.30;;;;;;6240323;22;20026;-59
2022/03/21 09:56:11;;;;;;;18.15;12.05;;;21.00;97.00;;;;;;6267788;22;20019;-58
2022/03/21 09:58:37;;;;;;;15.27;11.75;;;21.40;97.40;;;;;;6267523;22;20087;-57
2022/03/21 10:01:02;;;;;;;33.50;23.42;;;21.70;96.90;;;;;;6267590;22;20469;-56
2022/03/21 10:03:29;;;;;;;36.22;24.80;;;21.50;96.60;;;;;;6267386;22;20414;-57
2022/03/21 10:05:55;;;;;;;33.40;24.58;;;21.70;96.50;;;;;;6267290;22;20020;-57
2022/03/21 10:08:28;;;;;;;28.23;20.48;;;21.90;96.10;;;;;;6268091;22;20382;-56
2022/03/21 10:11:01;;;;;;;19.70;14.52;;;22.10;95.10;;;;;;6268017;22;20011;-57
2022/03/21 10:13:38;;;;;;;23.02;17.60;;;21.80;96.10;;;;;;6268117;22;20024;-56
2022/03/21 10:16:17;;;;;;;22.05;14.50;;;22.10;94.40;;;;;;6267894;22;20091;-57
2022/03/21 10:18:57;;;;;;;22.15;13.82;;;22.10;94.50;;;;;;6267359;22;20030;-57
2022/03/21 10:21:28;;;;;;;18.15;14.48;;;22.10;93.90;;;;;;6267038;22;20483;-56
2022/03/21 10:24:07;;;;;;;17.23;12.93;;;21.20;94.80;;;;;;6267761;22;20015;-56
2022/03/21 10:26:44;;;;;;;17.75;12.48;;;21.70;93.80;;;;;;6267476;22;20026;-57
2022/03/21 10:29:11;;;;;;;15.70;12.30;;;21.40;95.20;;;;;;6264320;22;20519;-57
2022/03/21 10:31:44;;;;;;;17.40;12.38;;;21.70;95.20;;;;;;6239798;22;20030;-57
2022/03/21 10:34:16;;;;;;;16.90;12.18;;;21.80;95.00;;;;;;6267281;22;20011;-57
2022/03/21 10:37:01;;;;;;;17.48;13.50;;;21.90;94.00;;;;;;6266849;22;20059;-57
2022/03/21 10:39:28;;;;;;;19.75;12.20;;;22.00;92.60;;;;;;6239070;22;20031;-57
2022/03/21 10:41:57;;;;;;;15.57;12.38;;;22.20;94.10;;;;;;6239906;22;20453;-57
2022/03/21 10:44:23;;;;;;;28.88;23.58;;;22.20;93.60;;;;;;6266084;22;20078;-56
2022/03/21 10:46:53;;;;;;;27.55;17.38;;;22.50;93.40;;;;;;6266467;22;20381;-57
2022/03/21 10:49:30;;;;;;;23.98;15.55;;;22.40;92.40;;;;;;6266717;22;20397;-57
2022/03/21 10:51:56;;;;;;;18.85;15.13;;;22.30;92.20;;;;;;6267011;22;20417;-56
2022/03/21 10:54:36;;;;;;;16.67;14.60;;;21.60;92.30;;;;;;6266786;22;20458;-56
2022/03/21 10:57:03;;;;;;;17.92;13.38;;;22.00;91.50;;;;;;6266001;22;20069;-57
2022/03/21 10:59:29;;;;;;;18.17;13.23;;;22.10;92.20;;;;;;6266198;22;20389;-57
2022/03/21 11:02:17;;;;;;;17.75;12.50;;;22.20;92.40;;;;;;6266382;22;20020;-60
2022/03/21 11:04:44;;;;;;;18.25;13.98;;;22.50;91.30;;;;;;6266210;22;20030;-58
2022/03/21 11:07:11;;;;;;;17.65;13.57;;;22.50;92.00;;;;;;6265816;22;20434;-58
2022/03/21 11:09:41;;;;;;;19.42;14.07;;;22.50;91.90;;;;;;6266165;22;20058;-59
2022/03/21 11:12:08;;;;;;;15.95;13.15;;;22.70;91.50;;;;;;6266087;22;20016;-59
2022/03/21 11:14:37;;;;;;;24.05;14.80;;;22.70;91.60;;;;;;6263780;22;20114;-59
2022/03/21 11:17:04;;;;;;;19.60;13.05;;;22.60;91.20;;;;;;6260882;22;20488;-63
2022/03/21 11:19:31;;;;;;;17.50;13.45;;;22.60;91.50;;;;;;6259954;22;20406;-58
2022/03/21 11:21:56;;;;;;;21.35;13.88;;;22.90;91.60;;;;;;6233293;22;20059;-58
2022/03/21 11:24:22;;;;;;;19.20;14.07;;;22.80;91.00;;;;;;6262352;22;20051;-58
2022/03/21 11:27:24;;;;;;;17.88;13.10;;;22.90;91.00;;;;;;6261487;22;20098;-58
2022/03/21 11:30:21;;;;;;;15.52;12.25;;;23.10;88.90;;;;;;6262513;22;20100;-57
2022/03/21 11:33:11;;;;;;;19.38;13.65;;;22.60;90.70;;;;;;6261499;22;20028;-57
2022/03/21 11:35:47;;;;;;;18.70;13.05;;;22.90;90.40;;;;;;6262798;22;20019;-58
2022/03/21 11:38:25;;;;;;;16.42;12.60;;;23.10;90.70;;;;;;6262677;22;20047;-57
2022/03/21 11:40:51;;;;;;;18.10;12.73;;;23.10;90.20;;;;;;6263168;22;20082;-58
2022/03/21 11:43:17;;;;;;;19.27;12.57;;;23.30;90.90;;;;;;6261838;22;20024;-58
2022/03/21 11:45:53;;;;;;;15.98;11.93;;;23.40;90.50;;;;;;6263228;22;20086;-57
2022/03/21 11:48:18;;;;;;;17.92;13.25;;;23.50;91.00;;;;;;6262141;22;20061;-58
2022/03/21 11:51:04;;;;;;;19.52;12.88;;;23.60;90.60;;;;;;6262749;22;20027;-58
2022/03/21 11:53:31;;;;;;;16.42;13.10;;;23.90;88.00;;;;;;6198651;22;20307;-58
2022/03/21 11:55:57;;;;;;;18.40;11.77;;;23.80;90.20;;;;;;6261516;22;20418;-58
2022/03/21 11:58:23;;;;;;;19.50;13.43;;;24.30;89.90;;;;;;6233861;22;20031;-58
2022/03/21 12:01:24;;;;;;;18.65;13.82;;;24.40;89.30;;;;;;6262561;22;20042;-58
2022/03/21 12:03:50;;;;;;;14.27;12.20;;;24.10;87.00;;;;;;6170825;22;20020;-58
2022/03/21 12:06:23;;;;;;;16.50;13.20;;;24.50;89.50;;;;;;6261522;22;20026;-58
2022/03/21 12:08:51;;;;;;;19.05;13.05;;;24.50;85.80;;;;;;6260652;22;20274;-58
2022/03/21 12:11:37;;;;;;;21.92;13.02;;;24.70;88.80;;;;;;6262726;22;20011;-58
2022/03/21 12:14:21;;;;;;;19.77;13.93;;;24.70;84.30;;;;;;6262679;22;20019;-58
2022/03/21 12:17:02;;;;;;;18.40;12.52;;;23.90;85.10;;;;;;6235782;22;20031;-58
2022/03/21 12:19:55;;;;;;;17.15;12.43;;;23.80;85.60;;;;;;6263306;22;20020;-58
2022/03/21 12:22:27;;;;;;;20.42;13.95;;;24.30;85.70;;;;;;6262938;22;20023;-58
2022/03/21 12:24:53;;;;;;;17.08;11.73;;;24.40;84.80;;;;;;6261869;22;20050;-59
2022/03/21 12:27:29;;;;;;;17.25;12.25;;;25.60;86.80;;;;;;6260900;22;20020;-57
2022/03/21 12:30:27;;;;;;;14.80;11.90;;;29.20;82.00;;;;;;6259018;22;20445;-58
2022/03/21 12:33:05;;;;;;;16.52;11.98;;;30.20;78.90;;;;;;6261497;22;20016;-58
2022/03/21 12:35:30;;;;;;;18.00;12.48;;;31.60;76.80;;;;;;6262570;22;20047;-58
2022/03/21 12:37:59;;;;;;;16.23;12.13;;;32.70;74.90;;;;;;6261985;22;20047;-57
2022/03/21 12:40:25;;;;;;;16.02;11.05;;;33.70;72.70;;;;;;6261670;22;20025;-57
2022/03/21 12:42:51;;;;;;;17.30;13.35;;;33.80;70.30;;;;;;6261350;22;20413;-57
2022/03/21 12:45:18;;;;;;;17.95;12.93;;;33.70;67.20;;;;;;6262191;22;20031;-58
2022/03/21 12:47:44;;;;;;;14.48;11.57;;;32.40;68.30;;;;;;6262101;22;20083;-57
2022/03/21 12:50:16;;;;;;;19.35;12.85;;;34.60;67.40;;;;;;6261763;22;20050;-58
2022/03/21 12:52:42;;;;;;;14.38;10.65;;;35.30;63.00;;;;;;6261781;22;20446;-57
2022/03/21 12:55:14;;;;;;;19.48;10.75;;;35.20;64.80;;;;;;6261999;22;20031;-57
2022/03/21 12:58:13;;;;;;;14.57;10.85;;;34.60;61.50;;;;;;6206877;22;20026;-57